Aviation Digital Data Service (ADDS)

Output produced by METARs form (0307 UTC 03 March 2015)
found at http://aviationweather.gov/adds/metars/
 
KBAF 022325Z 0300/0324 31012G22KT P6SM SCT050 
     FM030400 32008KT P6SM FEW250 
     FM030800 33004KT P6SM FEW250 
     FM031900 18004KT P6SM BKN130 
     FM032300 18008KT 3SM -SN OVC050